West Elkton, Ohio
Current Conditions -  °F | °C
As of 6:35 PM on Saturday 22 Nov 2014 (Local Time) from KMWO Reporting Station
Overcast Overcast  
Wind Chill: 57°   Ceiling: 9000
Heat Index: 57°   Visibility: 10mi
Dew Point: 35°   Wind: 9mph
Humidity: 44%   Direction: 200°SSW
Pressure: 30.08"   Gusts: NA
Location:  39.59°N, 84.55°W
Report Text: KMWO 222335Z AUTO 20008KT 10SM SCT060 OVC090 14/02 A3008 RMK AO2 T01380017
Loading
Personal Weather Stations






























Interactive Weather Map New forecast layout! Learn more

10-Day Weather Forecast

Advertisements
Track Severe Weather on mobile